Terminal Aerodrome Forecast
Issued by NWS Topeka, KS

Home | Current Version | Previous Version | Graphics & Text | Print | Product List | Glossary On
Versions: 1 2 3 4 5 6 7 8 9 10 11 12 13 14 15 16 17 18 19 20 21 22 23 24 25 26 27 28
000
FTUS43 KTOP 252000 AAA
TAFTOP
TAF AMD
KTOP 252005Z 2520/2618 03013G23KT P6SM BKN013
     FM252200 01015G23KT 5SM -RA BR BKN015 OVC050
     FM260500 35008KT P6SM SCT050 BKN100=

USA.gov is the U.S. government's official web portal to all federal, state and local government web resources and services.